sensor_id;sensor_type;location;lat;lon;timestamp;pressure;altitude;pressure_sealevel;temperature;humidity
48027;BME280;50714;49.208;5.364;2022-08-21T00:00:58;99606.38;;;18.82;50.58
48027;BME280;50714;49.208;5.364;2022-08-21T00:11:00;99608.78;;;18.78;50.60
48027;BME280;50714;49.208;5.364;2022-08-21T00:21:00;99599.13;;;18.70;51.15
48027;BME280;50714;49.208;5.364;2022-08-21T00:31:01;99597.91;;;18.45;51.30
48027;BME280;50714;49.208;5.364;2022-08-21T00:41:06;99581.50;;;18.23;51.75
48027;BME280;50714;49.208;5.364;2022-08-21T00:51:12;99594.31;;;18.22;51.82
48027;BME280;50714;49.208;5.364;2022-08-21T01:01:14;99586.16;;;18.05;52.26
48027;BME280;50714;49.208;5.364;2022-08-21T01:11:15;99596.41;;;17.98;52.08
48027;BME280;50714;49.208;5.364;2022-08-21T01:21:26;99583.91;;;18.02;53.21
48027;BME280;50714;49.208;5.364;2022-08-21T01:31:28;99575.88;;;17.96;51.95
48027;BME280;50714;49.208;5.364;2022-08-21T01:41:29;99589.72;;;17.72;52.66
48027;BME280;50714;49.208;5.364;2022-08-21T01:51:29;99581.75;;;17.54;52.65
48027;BME280;50714;49.208;5.364;2022-08-21T02:01:29;99584.88;;;17.46;52.46
48027;BME280;50714;49.208;5.364;2022-08-21T02:11:31;99564.53;;;17.37;53.24
48027;BME280;50714;49.208;5.364;2022-08-21T02:21:31;99562.13;;;17.24;53.52
48027;BME280;50714;49.208;5.364;2022-08-21T02:31:31;99559.53;;;17.17;53.23
48027;BME280;50714;49.208;5.364;2022-08-21T02:41:32;99553.88;;;17.07;53.61
48027;BME280;50714;49.208;5.364;2022-08-21T02:51:33;99560.31;;;17.01;54.15
48027;BME280;50714;49.208;5.364;2022-08-21T03:01:33;99557.03;;;16.99;54.06
48027;BME280;50714;49.208;5.364;2022-08-21T03:11:33;99554.91;;;16.89;53.99
48027;BME280;50714;49.208;5.364;2022-08-21T03:21:34;99548.09;;;16.75;54.59
48027;BME280;50714;49.208;5.364;2022-08-21T03:31:35;99553.56;;;16.75;54.30
48027;BME280;50714;49.208;5.364;2022-08-21T03:41:35;99564.00;;;16.66;54.76
48027;BME280;50714;49.208;5.364;2022-08-21T03:51:36;99568.63;;;16.66;54.71
48027;BME280;50714;49.208;5.364;2022-08-21T04:01:36;99568.34;;;16.56;54.74
48027;BME280;50714;49.208;5.364;2022-08-21T04:11:37;99562.94;;;16.44;55.22
48027;BME280;50714;49.208;5.364;2022-08-21T04:21:37;99561.53;;;16.42;55.16
48027;BME280;50714;49.208;5.364;2022-08-21T04:31:38;99562.72;;;16.46;55.14
48027;BME280;50714;49.208;5.364;2022-08-21T04:41:38;99559.03;;;16.40;55.05
48027;BME280;50714;49.208;5.364;2022-08-21T04:51:39;99566.50;;;16.33;55.02
48027;BME280;50714;49.208;5.364;2022-08-21T05:01:41;99569.38;;;16.26;55.65
48027;BME280;50714;49.208;5.364;2022-08-21T05:11:44;99582.75;;;16.16;55.70
48027;BME280;50714;49.208;5.364;2022-08-21T05:21:45;99586.78;;;16.02;55.53
48027;BME280;50714;49.208;5.364;2022-08-21T05:31:47;99585.13;;;15.89;56.16
48027;BME280;50714;49.208;5.364;2022-08-21T05:41:48;99582.50;;;15.94;57.33
48027;BME280;50714;49.208;5.364;2022-08-21T05:51:49;99579.78;;;16.18;57.24
48027;BME280;50714;49.208;5.364;2022-08-21T06:01:49;99581.06;;;16.50;57.34
48027;BME280;50714;49.208;5.364;2022-08-21T06:11:52;99581.94;;;16.79;57.21
48027;BME280;50714;49.208;5.364;2022-08-21T06:21:53;99571.22;;;17.01;57.34
48027;BME280;50714;49.208;5.364;2022-08-21T06:31:53;99553.13;;;17.40;57.23
48027;BME280;50714;49.208;5.364;2022-08-21T06:41:53;99560.41;;;18.01;56.59
48027;BME280;50714;49.208;5.364;2022-08-21T06:51:55;99560.16;;;18.80;56.33
48027;BME280;50714;49.208;5.364;2022-08-21T07:01:55;99583.97;;;19.55;55.58
48027;BME280;50714;49.208;5.364;2022-08-21T07:11:56;99571.56;;;20.17;54.84
48027;BME280;50714;49.208;5.364;2022-08-21T07:22:00;99573.84;;;20.77;54.09
48027;BME280;50714;49.208;5.364;2022-08-21T07:32:01;99577.84;;;21.27;53.86
48027;BME280;50714;49.208;5.364;2022-08-21T07:42:02;99569.97;;;21.96;53.10
48027;BME280;50714;49.208;5.364;2022-08-21T07:52:03;99561.03;;;22.60;52.11
48027;BME280;50714;49.208;5.364;2022-08-21T08:02:03;99567.72;;;23.13;51.15
48027;BME280;50714;49.208;5.364;2022-08-21T08:12:04;99563.59;;;24.18;50.11
48027;BME280;50714;49.208;5.364;2022-08-21T08:22:19;99558.59;;;25.53;46.36
48027;BME280;50714;49.208;5.364;2022-08-21T08:32:20;99558.47;;;28.05;47.17
48027;BME280;50714;49.208;5.364;2022-08-21T08:42:31;99559.09;;;30.07;40.40
48027;BME280;50714;49.208;5.364;2022-08-21T08:52:36;99545.50;;;31.82;38.87
48027;BME280;50714;49.208;5.364;2022-08-21T09:02:42;99541.50;;;32.85;34.69
48027;BME280;50714;49.208;5.364;2022-08-21T09:23:43;99531.97;;;32.86;29.35
48027;BME280;50714;49.208;5.364;2022-08-21T09:33:46;99521.22;;;34.09;32.68
48027;BME280;50714;49.208;5.364;2022-08-21T09:43:53;99517.03;;;32.34;32.25
48027;BME280;50714;49.208;5.364;2022-08-21T09:53:58;99514.19;;;33.19;29.53
48027;BME280;50714;49.208;5.364;2022-08-21T10:04:07;99508.41;;;34.86;29.78
48027;BME280;50714;49.208;5.364;2022-08-21T10:14:20;99499.94;;;35.37;26.38
48027;BME280;50714;49.208;5.364;2022-08-21T10:24:35;99483.59;;;34.73;25.08
48027;BME280;50714;49.208;5.364;2022-08-21T10:35:12;99486.41;;;34.26;26.57
48027;BME280;50714;49.208;5.364;2022-08-21T10:55:33;99467.69;;;32.50;28.86
48027;BME280;50714;49.208;5.364;2022-08-21T11:06:04;99464.31;;;31.75;29.30
48027;BME280;50714;49.208;5.364;2022-08-21T11:16:05;99459.47;;;31.09;30.36
48027;BME280;50714;49.208;5.364;2022-08-21T11:26:12;99452.25;;;30.88;29.72
48027;BME280;50714;49.208;5.364;2022-08-21T11:37:06;99442.78;;;30.80;29.66
48027;BME280;50714;49.208;5.364;2022-08-21T11:57:20;99437.34;;;31.79;28.85
48027;BME280;50714;49.208;5.364;2022-08-21T12:07:38;99418.16;;;30.91;27.71
48027;BME280;50714;49.208;5.364;2022-08-21T12:17:50;99414.25;;;30.62;30.34
48027;BME280;50714;49.208;5.364;2022-08-21T12:27:53;99398.97;;;30.68;30.59
48027;BME280;50714;49.208;5.364;2022-08-21T12:38:07;99393.59;;;30.63;30.20
48027;BME280;50714;49.208;5.364;2022-08-21T12:58:23;99371.94;;;30.10;30.73
48027;BME280;50714;49.208;5.364;2022-08-21T13:08:25;99380.78;;;29.74;30.81
48027;BME280;50714;49.208;5.364;2022-08-21T13:18:29;99378.34;;;29.55;31.30
48027;BME280;50714;49.208;5.364;2022-08-21T13:28:35;99373.44;;;29.69;31.45
48027;BME280;50714;49.208;5.364;2022-08-21T13:38:41;99367.22;;;29.64;31.18
48027;BME280;50714;49.208;5.364;2022-08-21T13:48:42;99364.22;;;28.88;31.93
48027;BME280;50714;49.208;5.364;2022-08-21T13:58:45;99355.06;;;28.52;31.80
48027;BME280;50714;49.208;5.364;2022-08-21T14:19:25;99345.09;;;27.86;32.40
48027;BME280;50714;49.208;5.364;2022-08-21T14:29:27;99329.00;;;27.66;32.46
48027;BME280;50714;49.208;5.364;2022-08-21T14:39:28;99335.34;;;27.58;32.82
48027;BME280;50714;49.208;5.364;2022-08-21T14:49:28;99334.81;;;27.56;33.01
48027;BME280;50714;49.208;5.364;2022-08-21T14:59:29;99325.97;;;27.76;33.22
48027;BME280;50714;49.208;5.364;2022-08-21T15:09:30;99328.31;;;28.00;32.89
48027;BME280;50714;49.208;5.364;2022-08-21T15:19:30;99323.13;;;28.15;32.66
48027;BME280;50714;49.208;5.364;2022-08-21T15:29:31;99316.50;;;28.34;32.80
48027;BME280;50714;49.208;5.364;2022-08-21T15:39:32;99317.97;;;28.40;32.45
48027;BME280;50714;49.208;5.364;2022-08-21T15:49:32;99316.81;;;28.24;33.20
48027;BME280;50714;49.208;5.364;2022-08-21T15:59:48;99308.25;;;28.11;32.66
48027;BME280;50714;49.208;5.364;2022-08-21T16:09:49;99316.06;;;27.92;33.09
48027;BME280;50714;49.208;5.364;2022-08-21T16:19:50;99303.78;;;27.76;32.93
48027;BME280;50714;49.208;5.364;2022-08-21T16:29:50;99310.59;;;27.61;33.46
48027;BME280;50714;49.208;5.364;2022-08-21T16:39:51;99311.97;;;27.50;33.55
48027;BME280;50714;49.208;5.364;2022-08-21T16:49:51;99302.78;;;27.41;33.67
48027;BME280;50714;49.208;5.364;2022-08-21T16:59:53;99306.28;;;27.15;33.73
48027;BME280;50714;49.208;5.364;2022-08-21T17:09:53;99309.66;;;26.90;34.20
48027;BME280;50714;49.208;5.364;2022-08-21T17:19:53;99305.81;;;26.77;34.31
48027;BME280;50714;49.208;5.364;2022-08-21T17:29:55;99312.25;;;26.64;34.46
48027;BME280;50714;49.208;5.364;2022-08-21T17:39:56;99307.88;;;26.49;35.15
48027;BME280;50714;49.208;5.364;2022-08-21T17:49:56;99311.63;;;26.31;35.59
48027;BME280;50714;49.208;5.364;2022-08-21T17:59:57;99307.44;;;26.06;36.02
48027;BME280;50714;49.208;5.364;2022-08-21T18:09:59;99318.03;;;25.91;36.82
48027;BME280;50714;49.208;5.364;2022-08-21T18:19:59;99315.88;;;25.74;36.85
48027;BME280;50714;49.208;5.364;2022-08-21T18:30:01;99314.44;;;25.63;37.06
48027;BME280;50714;49.208;5.364;2022-08-21T18:40:03;99309.38;;;25.51;37.41
48027;BME280;50714;49.208;5.364;2022-08-21T18:50:06;99307.34;;;25.43;37.74
48027;BME280;50714;49.208;5.364;2022-08-21T19:00:10;99318.56;;;25.33;38.30
48027;BME280;50714;49.208;5.364;2022-08-21T19:10:13;99326.94;;;25.14;39.52
48027;BME280;50714;49.208;5.364;2022-08-21T19:20:28;99318.75;;;24.90;41.21
48027;BME280;50714;49.208;5.364;2022-08-21T19:30:29;99327.06;;;24.71;40.18
48027;BME280;50714;49.208;5.364;2022-08-21T19:40:30;99346.41;;;24.53;39.66
48027;BME280;50714;49.208;5.364;2022-08-21T19:50:30;99351.59;;;24.35;40.18
48027;BME280;50714;49.208;5.364;2022-08-21T20:00:31;99344.09;;;24.17;40.88
48027;BME280;50714;49.208;5.364;2022-08-21T20:10:31;99349.34;;;23.95;42.05
48027;BME280;50714;49.208;5.364;2022-08-21T20:20:31;99346.31;;;23.72;42.72
48027;BME280;50714;49.208;5.364;2022-08-21T20:30:32;99349.50;;;23.61;42.57
48027;BME280;50714;49.208;5.364;2022-08-21T20:40:33;99344.09;;;23.45;42.86
48027;BME280;50714;49.208;5.364;2022-08-21T20:50:36;99345.91;;;23.31;43.79
48027;BME280;50714;49.208;5.364;2022-08-21T21:00:40;99351.88;;;23.15;43.71
48027;BME280;50714;49.208;5.364;2022-08-21T21:20:57;99340.78;;;22.91;45.12
48027;BME280;50714;49.208;5.364;2022-08-21T21:30:58;99340.84;;;22.81;44.33
48027;BME280;50714;49.208;5.364;2022-08-21T21:51:19;99347.66;;;22.49;45.09
48027;BME280;50714;49.208;5.364;2022-08-21T22:22:12;99335.78;;;22.15;46.63
48027;BME280;50714;49.208;5.364;2022-08-21T22:32:35;99350.09;;;22.06;46.86
48027;BME280;50714;49.208;5.364;2022-08-21T22:42:39;99357.00;;;21.94;46.22
48027;BME280;50714;49.208;5.364;2022-08-21T22:52:46;99360.88;;;21.88;46.83
48027;BME280;50714;49.208;5.364;2022-08-21T23:13:15;99341.16;;;21.70;47.55
48027;BME280;50714;49.208;5.364;2022-08-21T23:23:22;99335.41;;;21.67;48.98
48027;BME280;50714;49.208;5.364;2022-08-21T23:43:54;99323.00;;;21.74;47.54
48027;BME280;50714;49.208;5.364;2022-08-21T23:54:11;99322.16;;;21.79;47.20
